Time;durP1;ratioP1;P1;durP2;ratioP2;P2;SDS_P1;SDS_P2;PMS_P1;PMS_P2;Temp;Humidity;BMP_temperature;BMP_pressure;BME280_temperature;BME280_humidity;BME280_pressure;Samples;Min_cycle;Max_cycle;Signal;HPM_P1;HPM_P2
2023/03/13 00:00:03;;;;;;;7.10;1.57;;;8.60;99.90;8.50;99766.00;;;;4979201;28;116312;-67
2023/03/13 00:02:29;;;;;;;4.77;1.47;;;8.60;99.90;8.50;99770.00;;;;4975942;28;88053;-67
2023/03/13 00:04:55;;;;;;;1.33;0.90;;;8.60;99.90;8.50;99772.00;;;;4977437;28;107545;-68
2023/03/13 00:07:20;;;;;;;4.53;1.60;;;8.60;99.90;8.50;99763.00;;;;4980368;28;117411;-69
2023/03/13 00:09:46;;;;;;;3.63;1.40;;;8.60;99.90;8.60;99766.00;;;;4986216;28;118939;-68
2023/03/13 00:12:12;;;;;;;8.77;1.73;;;8.60;99.90;8.60;99757.00;;;;4976648;28;109853;-67
2023/03/13 00:14:37;;;;;;;5.80;1.53;;;8.70;99.90;8.60;99761.00;;;;4976622;27;88123;-67
2023/03/13 00:17:03;;;;;;;2.27;1.50;;;8.60;99.90;8.60;99758.00;;;;4990799;27;88207;-68
2023/03/13 00:19:29;;;;;;;1.87;1.00;;;8.70;99.90;8.60;99755.00;;;;4975587;28;117100;-66
2023/03/13 00:21:54;;;;;;;5.07;1.70;;;8.70;99.90;8.60;99749.00;;;;4974715;28;110762;-68
2023/03/13 00:24:20;;;;;;;3.53;0.90;;;8.70;99.90;8.70;99755.00;;;;4976907;27;90083;-67
2023/03/13 00:26:46;;;;;;;3.57;1.93;;;8.80;99.90;8.70;99763.00;;;;4974316;28;114010;-66
2023/03/13 00:29:11;;;;;;;4.23;1.87;;;8.90;99.90;8.70;99748.00;;;;4987703;28;117631;-67
2023/03/13 00:31:38;;;;;;;1.87;1.30;;;8.80;99.90;8.70;99752.00;;;;4975483;28;108650;-67
2023/03/13 00:34:03;;;;;;;4.80;1.70;;;8.80;99.90;8.70;99751.00;;;;4975783;28;107311;-67
2023/03/13 00:36:33;;;;;;;6.23;1.57;;;8.80;99.90;8.70;99748.00;;;;4974385;28;118688;-66
2023/03/13 00:38:59;;;;;;;2.03;1.60;;;8.80;99.90;8.70;99744.00;;;;4974080;28;109040;-69
2023/03/13 00:41:44;;;;;;;1.00;1.00;;;8.80;99.90;8.70;99751.00;;;;4971248;28;99361;-66
2023/03/13 00:44:09;;;;;;;2.40;1.33;;;9.40;99.90;8.80;99750.00;;;;4980965;28;87864;-67
2023/03/13 00:46:35;;;;;;;2.93;1.70;;;8.80;99.90;8.80;99755.00;;;;4988074;28;87912;-68
2023/03/13 00:49:01;;;;;;;4.33;1.50;;;8.90;99.90;8.80;99754.00;;;;4980152;28;87339;-66
2023/03/13 00:51:28;;;;;;;3.00;1.37;;;8.80;99.90;8.80;99738.00;;;;4982691;28;100597;-67
2023/03/13 00:53:55;;;;;;;3.07;1.87;;;8.90;99.90;8.80;99724.00;;;;4980829;28;87901;-66
2023/03/13 00:56:21;;;;;;;8.27;2.00;;;8.80;99.90;8.80;99734.00;;;;4975736;28;88730;-66
2023/03/13 00:58:49;;;;;;;6.10;1.90;;;8.80;99.90;8.80;99732.00;;;;4980693;28;117134;-68
2023/03/13 01:01:25;;;;;;;5.40;2.03;;;8.80;99.90;8.80;99721.00;;;;4978453;28;88015;-67
2023/03/13 01:03:58;;;;;;;6.03;2.00;;;8.90;99.90;8.80;99719.00;;;;4994340;27;87633;-69
2023/03/13 01:06:27;;;;;;;3.63;1.90;;;8.80;99.90;8.80;99728.00;;;;5004871;27;87753;-68
2023/03/13 01:08:53;;;;;;;7.43;2.10;;;8.90;99.90;8.80;99710.00;;;;4980522;28;88528;-67
2023/03/13 01:11:26;;;;;;;4.90;2.00;;;8.90;99.90;8.80;99715.00;;;;4976784;27;104420;-67
2023/03/13 01:13:57;;;;;;;4.80;1.60;;;9.00;99.90;8.80;99722.00;;;;4977459;28;101318;-68
2023/03/13 01:16:25;;;;;;;1.93;1.37;;;9.00;99.90;8.90;99718.00;;;;4977059;28;87773;-67
2023/03/13 01:18:54;;;;;;;4.83;1.60;;;9.00;99.90;8.90;99715.00;;;;4978686;28;89938;-67
2023/03/13 01:21:22;;;;;;;5.87;1.67;;;9.00;99.90;8.90;99716.00;;;;4992291;27;88899;-67
2023/03/13 01:23:50;;;;;;;7.17;1.87;;;9.00;99.90;8.90;99715.00;;;;4979247;28;87665;-69
2023/03/13 01:26:16;;;;;;;5.93;1.80;;;9.00;99.90;9.00;99712.00;;;;4986610;28;87995;-70
2023/03/13 01:28:42;;;;;;;3.57;1.70;;;9.00;99.90;9.00;99719.00;;;;4974769;28;117976;-68
2023/03/13 01:31:21;;;;;;;3.37;1.40;;;9.10;99.90;9.00;99709.00;;;;4979117;28;96127;-66
2023/03/13 01:33:49;;;;;;;5.57;1.90;;;9.00;99.90;9.00;99705.00;;;;4977034;28;91956;-66
2023/03/13 01:36:16;;;;;;;1.63;1.13;;;9.10;99.90;9.00;99708.00;;;;4974370;28;97652;-68
2023/03/13 01:38:41;;;;;;;4.27;1.70;;;9.10;99.90;9.00;99698.00;;;;4974400;27;88395;-67
2023/03/13 01:41:10;;;;;;;9.60;2.20;;;9.10;99.90;9.00;99702.00;;;;4978554;28;110896;-69
2023/03/13 01:43:37;;;;;;;2.33;1.33;;;9.10;99.90;9.00;99700.00;;;;4992247;28;87905;-67
2023/03/13 01:46:08;;;;;;;8.47;2.20;;;9.10;99.90;9.10;99692.00;;;;4970874;28;113272;-67
2023/03/13 01:48:49;;;;;;;8.23;1.90;;;9.10;99.90;9.00;99693.00;;;;4978279;28;89564;-67
2023/03/13 01:51:28;;;;;;;8.73;1.90;;;9.10;99.90;9.00;99690.00;;;;4980744;28;87941;-65
2023/03/13 01:54:02;;;;;;;4.90;2.33;;;9.10;99.90;9.00;99698.00;;;;4978478;28;88114;-65
2023/03/13 01:56:48;;;;;;;2.67;1.10;;;9.10;99.90;9.00;99697.00;;;;4977810;28;94009;-66
2023/03/13 01:59:18;;;;;;;6.90;1.90;;;9.10;99.90;8.90;99688.00;;;;4976421;28;87838;-65
2023/03/13 02:01:46;;;;;;;3.10;1.80;;;9.00;99.90;8.90;99679.00;;;;4983403;28;88010;-68
2023/03/13 02:04:15;;;;;;;2.03;1.10;;;9.00;99.90;9.00;99680.00;;;;4977383;28;87117;-67
2023/03/13 02:06:44;;;;;;;4.67;1.23;;;9.10;99.90;9.00;99676.00;;;;4977753;28;87867;-67
2023/03/13 02:09:17;;;;;;;3.70;1.77;;;9.10;99.90;9.00;99682.00;;;;4990587;27;87958;-67
2023/03/13 02:11:54;;;;;;;7.73;1.43;;;9.10;99.90;9.00;99676.00;;;;4974883;28;91885;-65
2023/03/13 02:14:24;;;;;;;7.23;2.07;;;9.10;99.90;9.00;99662.00;;;;4994546;27;99939;-67
2023/03/13 02:16:51;;;;;;;6.47;2.17;;;9.10;99.90;9.00;99661.00;;;;4980593;27;106517;-69
2023/03/13 02:19:39;;;;;;;2.27;1.63;;;9.10;99.90;9.00;99659.00;;;;4975498;28;106399;-69
2023/03/13 02:22:31;;;;;;;8.50;2.03;;;9.10;99.90;9.00;99653.00;;;;4986604;28;87916;-67
2023/03/13 02:25:24;;;;;;;4.07;1.53;;;9.10;99.90;9.00;99651.00;;;;4988157;27;87967;-69
2023/03/13 02:28:01;;;;;;;3.17;1.67;;;9.10;99.90;9.00;99641.00;;;;4973603;28;88670;-67
2023/03/13 02:30:27;;;;;;;1.90;1.73;;;9.10;99.90;9.00;99645.00;;;;4988647;27;113204;-66
2023/03/13 02:32:54;;;;;;;3.13;1.50;;;9.10;99.90;9.00;99641.00;;;;4974829;28;110644;-66
2023/03/13 02:35:22;;;;;;;3.43;1.53;;;9.10;99.90;9.00;99640.00;;;;4975348;28;109023;-67
2023/03/13 02:37:58;;;;;;;8.57;2.03;;;9.10;99.90;8.90;99647.00;;;;4975472;28;117661;-65
2023/03/13 02:40:29;;;;;;;7.57;1.83;;;9.10;99.90;8.90;99633.00;;;;4986344;28;106851;-65
2023/03/13 02:42:57;;;;;;;5.83;1.30;;;9.00;99.90;8.90;99639.00;;;;4973214;28;99828;-66
2023/03/13 02:45:23;;;;;;;3.13;1.63;;;9.00;99.90;8.90;99633.00;;;;4987350;27;88187;-66
2023/03/13 02:47:49;;;;;;;6.93;1.47;;;9.00;99.90;8.90;99631.00;;;;4970668;28;116984;-67
2023/03/13 02:50:15;;;;;;;4.37;1.40;;;9.00;99.90;8.90;99639.00;;;;4977702;28;116314;-65
2023/03/13 02:52:49;;;;;;;4.00;2.10;;;9.00;99.90;8.80;99642.00;;;;4986472;28;109822;-66
2023/03/13 02:55:29;;;;;;;1.43;1.30;;;9.00;99.90;8.80;99633.00;;;;4994981;28;87095;-66
2023/03/13 02:57:54;;;;;;;2.77;1.73;;;8.90;99.90;8.80;99637.00;;;;4985440;28;100665;-66
2023/03/13 03:00:25;;;;;;;5.80;2.23;;;8.90;99.90;8.90;99641.00;;;;4976387;27;116057;-67
2023/03/13 03:02:52;;;;;;;7.23;2.87;;;9.00;99.90;8.80;99645.00;;;;4974591;28;88932;-68
2023/03/13 03:05:19;;;;;;;6.30;1.57;;;8.90;99.90;8.90;99642.00;;;;4970270;27;88024;-65
2023/03/13 03:07:44;;;;;;;2.43;1.33;;;8.90;99.90;8.90;99627.00;;;;4975790;28;117102;-66
2023/03/13 03:10:11;;;;;;;6.87;2.23;;;9.00;99.90;8.90;99626.00;;;;4974008;28;117852;-66
2023/03/13 03:12:36;;;;;;;3.33;1.63;;;9.00;99.90;9.00;99629.00;;;;4969053;28;110456;-64
2023/03/13 03:15:03;;;;;;;2.40;1.67;;;9.00;99.90;9.00;99655.00;;;;4975807;27;108762;-66
2023/03/13 03:17:29;;;;;;;9.67;2.13;;;9.10;99.90;9.00;99638.00;;;;4987763;28;88889;-66
2023/03/13 03:19:55;;;;;;;3.83;1.93;;;9.10;99.90;9.00;99632.00;;;;4973086;28;117298;-65
2023/03/13 03:22:27;;;;;;;3.40;2.00;;;9.10;99.90;9.00;99618.00;;;;4973028;28;111531;-68
2023/03/13 03:24:53;;;;;;;4.07;1.40;;;9.10;99.90;9.10;99623.00;;;;4970669;28;98976;-69
2023/03/13 03:27:18;;;;;;;4.40;1.63;;;9.10;99.90;9.10;99621.00;;;;4973926;28;117106;-68
2023/03/13 03:29:44;;;;;;;6.30;1.83;;;9.10;99.90;9.10;99622.00;;;;4969057;28;117644;-69
2023/03/13 03:32:10;;;;;;;4.03;1.80;;;9.20;99.90;9.10;99625.00;;;;4969445;28;110201;-66
2023/03/13 03:34:35;;;;;;;12.80;1.70;;;9.20;99.90;9.10;99619.00;;;;4965829;28;109032;-65
2023/03/13 03:37:01;;;;;;;7.67;1.60;;;9.20;99.90;9.10;99615.00;;;;4986295;28;89108;-68
2023/03/13 03:39:27;;;;;;;3.67;1.80;;;9.20;99.90;9.10;99593.00;;;;4974840;28;104753;-66
2023/03/13 03:41:52;;;;;;;2.17;1.17;;;9.60;99.90;9.10;99594.00;;;;4975721;28;110617;-66
2023/03/13 03:44:18;;;;;;;3.37;1.87;;;9.20;99.90;9.10;99599.00;;;;4970426;28;107682;-68
2023/03/13 03:46:44;;;;;;;6.03;1.87;;;9.20;99.90;9.10;99585.00;;;;4971783;28;117843;-65
2023/03/13 03:49:09;;;;;;;3.60;1.40;;;9.20;99.90;9.10;99584.00;;;;4973249;28;117403;-67
2023/03/13 03:51:35;;;;;;;6.30;2.47;;;9.20;99.90;9.10;99583.00;;;;4973728;28;111212;-67
2023/03/13 03:54:01;;;;;;;1.73;1.33;;;9.30;99.90;9.10;99584.00;;;;4976977;28;107211;-67
2023/03/13 03:56:26;;;;;;;1.80;1.23;;;9.20;99.90;9.10;99563.00;;;;4979331;28;96533;-68
2023/03/13 03:58:52;;;;;;;4.10;1.53;;;9.20;99.90;9.10;99571.00;;;;4973998;28;108334;-67
2023/03/13 04:01:17;;;;;;;4.77;1.37;;;9.20;99.90;9.10;99557.00;;;;4973999;28;109299;-68
2023/03/13 04:03:43;;;;;;;5.20;2.47;;;9.20;99.90;9.10;99564.00;;;;4975224;28;109038;-66
2023/03/13 04:06:09;;;;;;;1.83;1.30;;;9.20;99.90;9.10;99557.00;;;;4974693;28;89828;-66
2023/03/13 04:08:35;;;;;;;3.53;1.93;;;9.20;99.90;9.10;99560.00;;;;4975610;28;117671;-67
2023/03/13 04:11:01;;;;;;;1.97;1.47;;;9.20;99.90;9.10;99556.00;;;;4976018;28;88752;-68
2023/03/13 04:13:27;;;;;;;1.73;1.63;;;9.20;99.90;9.10;99553.00;;;;4989363;28;88075;-66
2023/03/13 04:15:53;;;;;;;1.47;1.27;;;9.20;99.90;9.10;99544.00;;;;4966571;28;119040;-68
2023/03/13 04:18:19;;;;;;;3.13;1.90;;;9.20;99.90;9.10;99550.00;;;;4973680;28;118233;-68
2023/03/13 04:20:45;;;;;;;4.30;2.27;;;9.30;99.90;9.10;99535.00;;;;4973240;28;90537;-69
2023/03/13 04:23:10;;;;;;;8.00;1.63;;;9.20;99.90;9.10;99532.00;;;;4980044;27;87998;-66
2023/03/13 04:25:37;;;;;;;3.07;1.60;;;9.20;99.90;9.10;99516.00;;;;4977968;28;117317;-68
2023/03/13 04:28:02;;;;;;;3.90;1.17;;;9.20;99.90;9.10;99521.00;;;;4977209;28;88307;-68
2023/03/13 04:30:28;;;;;;;3.87;1.53;;;9.20;99.90;9.10;99519.00;;;;4981969;28;87801;-67
2023/03/13 04:32:54;;;;;;;5.50;1.67;;;9.20;99.90;9.10;99508.00;;;;4993532;28;108323;-67
2023/03/13 04:35:19;;;;;;;6.37;2.03;;;9.30;99.90;9.10;99502.00;;;;4979771;28;102524;-64
2023/03/13 04:37:45;;;;;;;13.77;1.53;;;9.20;99.90;9.10;99509.00;;;;4973767;28;116960;-66
2023/03/13 04:40:12;;;;;;;3.37;1.23;;;9.20;99.90;9.10;99506.00;;;;4978718;28;101848;-67
2023/03/13 04:42:39;;;;;;;7.80;2.30;;;9.20;99.90;9.10;99492.00;;;;4991333;27;87973;-66
2023/03/13 04:45:06;;;;;;;4.63;1.67;;;9.20;99.90;9.10;99487.00;;;;4976679;28;87675;-66
2023/03/13 04:47:32;;;;;;;5.97;1.90;;;9.20;99.90;9.00;99480.00;;;;4975600;28;106634;-67
2023/03/13 04:49:57;;;;;;;2.37;1.43;;;9.10;99.90;9.00;99473.00;;;;4974383;28;110201;-68
2023/03/13 04:52:23;;;;;;;4.90;2.30;;;9.10;99.90;9.00;99467.00;;;;4984841;28;107615;-65
2023/03/13 04:54:49;;;;;;;5.90;1.97;;;9.10;99.90;9.00;99473.00;;;;4971774;28;117804;-65
2023/03/13 04:57:16;;;;;;;7.67;2.50;;;9.00;99.90;9.00;99468.00;;;;4990341;27;87923;-66
2023/03/13 04:59:41;;;;;;;5.77;1.63;;;9.00;99.90;8.90;99461.00;;;;4974590;28;88597;-67
2023/03/13 05:02:11;;;;;;;3.50;1.53;;;9.00;99.90;8.90;99463.00;;;;4974067;28;108183;-65
2023/03/13 05:04:37;;;;;;;6.47;1.30;;;9.00;99.90;8.90;99455.00;;;;4972318;28;89177;-65
2023/03/13 05:07:02;;;;;;;1.87;1.10;;;9.00;99.90;8.90;99438.00;;;;4973911;28;104811;-68
2023/03/13 05:09:28;;;;;;;3.73;1.63;;;9.00;99.90;8.90;99435.00;;;;4987791;28;87571;-67
2023/03/13 05:11:54;;;;;;;2.73;1.70;;;9.00;99.90;8.90;99444.00;;;;4971968;28;109027;-67
2023/03/13 05:14:19;;;;;;;2.13;1.07;;;9.00;99.90;8.90;99437.00;;;;4973439;28;90863;-66
2023/03/13 05:16:45;;;;;;;5.63;2.00;;;9.00;99.90;8.90;99433.00;;;;4974654;28;96538;-67
2023/03/13 05:19:11;;;;;;;5.30;1.27;;;9.00;99.90;9.00;99442.00;;;;4972816;28;111476;-67
2023/03/13 05:21:36;;;;;;;3.73;1.70;;;9.00;99.90;9.00;99429.00;;;;4973957;28;108892;-66
2023/03/13 05:24:02;;;;;;;6.43;1.93;;;9.00;99.90;9.00;99429.00;;;;4970502;28;101908;-66
2023/03/13 05:26:28;;;;;;;2.00;1.70;;;9.00;99.90;8.90;99429.00;;;;4974058;28;103388;-66
2023/03/13 05:28:53;;;;;;;4.20;1.93;;;9.00;99.90;8.90;99409.00;;;;4989251;28;110220;-67
2023/03/13 05:31:19;;;;;;;3.30;1.27;;;9.00;99.90;9.00;99406.00;;;;4975586;28;109130;-66
2023/03/13 05:33:45;;;;;;;5.00;1.43;;;9.00;99.90;9.00;99409.00;;;;4972103;28;117736;-66
2023/03/13 05:36:10;;;;;;;3.63;0.90;;;9.10;99.90;9.00;99394.00;;;;4975804;28;116465;-68
2023/03/13 05:38:36;;;;;;;4.13;1.73;;;9.00;99.90;9.00;99394.00;;;;4976860;28;110199;-67
2023/03/13 05:41:02;;;;;;;2.87;1.13;;;9.10;99.90;9.00;99388.00;;;;4968134;28;108973;-67
2023/03/13 05:43:27;;;;;;;3.60;1.17;;;9.10;99.90;9.10;99388.00;;;;4968020;28;117314;-66
2023/03/13 05:45:53;;;;;;;3.67;1.37;;;9.10;99.90;9.10;99385.00;;;;4966912;28;87020;-66
2023/03/13 05:48:19;;;;;;;5.43;1.43;;;9.20;99.90;9.20;99382.00;;;;4982612;28;109670;-66
2023/03/13 05:50:45;;;;;;;4.33;2.07;;;9.20;99.90;9.20;99374.00;;;;4970444;27;109014;-66
2023/03/13 05:53:13;;;;;;;1.27;1.17;;;9.30;99.90;9.20;99364.00;;;;4967848;28;88718;-66
2023/03/13 05:55:38;;;;;;;2.27;1.03;;;9.30;99.90;9.30;99368.00;;;;4969692;28;89340;-67
2023/03/13 05:58:04;;;;;;;3.93;1.90;;;9.30;99.90;9.30;99380.00;;;;4972616;28;110742;-65
2023/03/13 06:00:30;;;;;;;6.37;1.60;;;9.40;99.90;9.30;99370.00;;;;4974688;28;107170;-66
2023/03/13 06:02:55;;;;;;;3.17;1.57;;;9.30;99.90;9.40;99367.00;;;;4970856;28;117350;-67
2023/03/13 06:05:21;;;;;;;9.30;1.93;;;9.40;99.90;9.40;99370.00;;;;4973255;28;100190;-66
2023/03/13 06:07:49;;;;;;;5.10;1.47;;;9.40;99.90;9.40;99364.00;;;;4970856;28;110020;-65
2023/03/13 06:10:15;;;;;;;5.50;2.10;;;9.50;99.90;9.50;99366.00;;;;4974895;28;88146;-67
2023/03/13 06:12:40;;;;;;;3.60;1.40;;;9.50;99.90;9.50;99355.00;;;;4976623;28;108418;-68
2023/03/13 06:15:08;;;;;;;3.17;1.63;;;9.50;99.90;9.50;99355.00;;;;4970967;28;117898;-68
2023/03/13 06:17:35;;;;;;;7.93;2.20;;;9.60;99.90;9.50;99356.00;;;;4970713;28;89083;-67
2023/03/13 06:20:03;;;;;;;3.93;1.77;;;9.50;99.90;9.50;99354.00;;;;4974778;28;87975;-68
2023/03/13 06:22:29;;;;;;;1.23;0.80;;;9.60;99.90;9.50;99357.00;;;;4979167;28;88028;-68
2023/03/13 06:24:55;;;;;;;2.37;1.83;;;9.50;99.90;9.60;99359.00;;;;4983488;28;89143;-67
2023/03/13 06:27:21;;;;;;;3.87;0.93;;;9.60;99.90;9.60;99352.00;;;;4973538;28;88022;-68
2023/03/13 06:29:47;;;;;;;3.50;1.17;;;9.60;99.90;9.60;99334.00;;;;4975968;28;108207;-66
2023/03/13 06:32:12;;;;;;;6.10;1.77;;;9.60;99.90;9.60;99314.00;;;;4970130;28;118180;-64
2023/03/13 06:34:38;;;;;;;3.27;1.93;;;9.70;99.90;9.70;99314.00;;;;4976887;28;88647;-66
2023/03/13 06:37:04;;;;;;;9.97;1.50;;;9.70;99.90;9.70;99311.00;;;;4975681;28;103074;-66
2023/03/13 06:39:29;;;;;;;6.83;2.20;;;9.80;99.90;9.70;99311.00;;;;4970707;28;88769;-67
2023/03/13 06:41:55;;;;;;;6.93;3.40;;;9.80;99.90;9.80;99289.00;;;;4971153;28;118938;-67
2023/03/13 06:44:21;;;;;;;8.87;3.53;;;9.80;99.90;9.80;99286.00;;;;4985522;28;117458;-68
2023/03/13 06:46:46;;;;;;;3.50;1.70;;;9.90;99.90;9.90;99287.00;;;;4973641;28;110025;-66
2023/03/13 06:49:12;;;;;;;5.90;1.93;;;9.90;99.90;9.90;99282.00;;;;4971829;28;88000;-67
2023/03/13 06:51:38;;;;;;;8.43;2.33;;;10.00;99.90;10.00;99277.00;;;;4970184;28;116923;-68
2023/03/13 06:54:03;;;;;;;6.13;2.07;;;10.10;99.90;10.00;99271.00;;;;4976651;28;117680;-69
2023/03/13 06:56:29;;;;;;;2.00;1.30;;;10.10;99.90;10.10;99274.00;;;;4976906;28;110763;-67
2023/03/13 06:58:55;;;;;;;3.83;2.20;;;10.10;99.90;10.10;99260.00;;;;4975918;28;106938;-67
2023/03/13 07:01:20;;;;;;;8.63;3.77;;;10.10;99.90;10.10;99270.00;;;;4974061;28;116437;-66
2023/03/13 07:03:47;;;;;;;4.87;2.20;;;10.20;99.90;10.20;99267.00;;;;4984000;28;88550;-67
2023/03/13 07:06:14;;;;;;;15.47;2.37;;;10.20;99.90;10.20;99262.00;;;;4973415;28;89015;-67
2023/03/13 07:08:40;;;;;;;10.60;4.43;;;10.20;99.90;10.30;99256.00;;;;4974801;28;88596;-66
2023/03/13 07:11:08;;;;;;;6.43;2.67;;;10.30;99.90;10.40;99252.00;;;;4969594;28;109696;-65
2023/03/13 07:13:34;;;;;;;10.13;4.03;;;10.40;99.90;10.40;99250.00;;;;4970464;28;90671;-68
2023/03/13 07:16:09;;;;;;;4.93;2.30;;;10.50;99.90;10.50;99242.00;;;;4976349;28;91218;-65
2023/03/13 07:18:35;;;;;;;6.07;2.73;;;10.50;99.90;10.60;99241.00;;;;4975154;28;87696;-66
2023/03/13 07:21:05;;;;;;;2.77;1.83;;;10.60;99.90;10.60;99241.00;;;;4985064;28;94122;-67
2023/03/13 07:23:33;;;;;;;4.57;1.87;;;10.60;99.90;10.70;99232.00;;;;4970787;28;87933;-65
2023/03/13 07:26:12;;;;;;;3.73;1.20;;;10.30;99.90;10.60;99231.00;;;;4975543;28;87883;-65
2023/03/13 07:28:37;;;;;;;1.97;1.13;;;10.70;99.90;10.60;99232.00;;;;4991983;27;95839;-64
2023/03/13 07:31:19;;;;;;;3.43;1.20;;;10.60;99.90;10.60;99227.00;;;;4982021;28;118653;-65
2023/03/13 07:33:44;;;;;;;6.43;1.43;;;10.60;99.90;10.60;99227.00;;;;4990131;28;105457;-66
2023/03/13 07:36:12;;;;;;;3.60;1.33;;;10.60;99.90;10.60;99229.00;;;;4992939;28;89609;-65
2023/03/13 07:38:38;;;;;;;2.43;1.00;;;10.60;99.90;10.50;99224.00;;;;4972699;28;87938;-68
2023/03/13 07:41:04;;;;;;;2.73;0.97;;;10.50;99.90;10.30;99219.00;;;;4987228;28;88783;-66
2023/03/13 07:43:30;;;;;;;2.50;1.53;;;10.40;99.90;10.20;99208.00;;;;4977317;28;88462;-68
2023/03/13 07:46:04;;;;;;;5.23;1.90;;;10.30;99.90;10.00;99206.00;;;;4974067;28;88106;-69
2023/03/13 07:48:40;;;;;;;2.60;1.17;;;10.10;99.90;9.80;99218.00;;;;4976889;28;99128;-70
2023/03/13 07:51:11;;;;;;;4.33;1.33;;;10.00;99.90;9.70;99223.00;;;;4964572;28;90553;-68
2023/03/13 07:53:36;;;;;;;10.53;1.77;;;9.90;99.90;9.70;99217.00;;;;4968457;28;91662;-70
2023/03/13 07:56:07;;;;;;;2.70;1.83;;;9.80;99.90;9.60;99218.00;;;;4974854;28;110594;-69
2023/03/13 07:58:36;;;;;;;3.47;1.03;;;9.70;99.90;9.50;99211.00;;;;4991221;28;87927;-68
2023/03/13 08:01:11;;;;;;;8.03;2.30;;;9.70;99.90;9.50;99217.00;;;;4975690;28;88151;-67
2023/03/13 08:03:38;;;;;;;5.53;1.97;;;9.60;99.90;9.50;99222.00;;;;4977520;28;88257;-67
2023/03/13 08:06:08;;;;;;;2.37;1.77;;;9.60;99.90;9.50;99215.00;;;;4979761;28;87908;-68
2023/03/13 08:08:34;;;;;;;14.03;6.00;;;9.60;99.90;9.50;99224.00;;;;4977600;28;87915;-70
2023/03/13 08:11:06;;;;;;;10.37;2.50;;;9.60;99.90;9.40;99212.00;;;;4978316;28;88025;-71
2023/03/13 08:13:33;;;;;;;2.80;1.77;;;9.60;99.90;9.40;99216.00;;;;4975030;28;103912;-69
2023/03/13 08:16:06;;;;;;;2.97;2.03;;;9.50;99.90;9.40;99218.00;;;;4989097;27;88049;-69
2023/03/13 08:18:34;;;;;;;3.07;1.87;;;9.50;99.90;9.30;99218.00;;;;4999302;27;88007;-68
2023/03/13 08:21:09;;;;;;;4.57;1.40;;;9.40;99.90;9.30;99218.00;;;;4972822;28;89585;-69
2023/03/13 08:23:35;;;;;;;4.23;1.50;;;9.40;99.90;9.20;99210.00;;;;4972970;28;95788;-67
2023/03/13 08:26:08;;;;;;;6.00;1.93;;;9.40;99.90;9.20;99219.00;;;;4974259;28;87852;-67
2023/03/13 08:28:35;;;;;;;4.33;1.20;;;9.30;99.90;9.20;99212.00;;;;4972900;28;100425;-70
2023/03/13 08:31:32;;;;;;;3.23;1.67;;;9.30;99.90;9.20;99213.00;;;;4973667;28;88172;-69
2023/03/13 08:33:58;;;;;;;6.43;2.33;;;9.30;99.90;9.20;99208.00;;;;4973227;28;87818;-66
2023/03/13 08:36:32;;;;;;;6.67;2.67;;;9.30;99.90;9.20;99203.00;;;;4976253;28;87945;-67
2023/03/13 08:39:04;;;;;;;5.67;2.30;;;9.30;99.90;9.20;99207.00;;;;4978237;28;87160;-66
2023/03/13 08:41:35;;;;;;;8.30;1.80;;;9.30;99.90;9.20;99188.00;;;;4974946;28;88243;-66
2023/03/13 08:44:01;;;;;;;3.83;1.73;;;9.20;99.90;9.20;99181.00;;;;4980335;28;88749;-65
2023/03/13 08:46:30;;;;;;;4.40;1.80;;;9.20;99.90;9.20;99180.00;;;;4982625;28;88939;-66
2023/03/13 08:48:56;;;;;;;4.90;1.67;;;9.30;99.90;9.20;99188.00;;;;4980301;28;90196;-65
2023/03/13 08:51:25;;;;;;;2.57;1.57;;;9.20;99.90;9.20;99187.00;;;;4976267;28;89009;-66
2023/03/13 08:53:51;;;;;;;8.10;1.87;;;9.20;99.90;9.20;99184.00;;;;4979145;28;87922;-66
2023/03/13 08:56:21;;;;;;;2.13;1.27;;;9.30;99.90;9.20;99191.00;;;;4979625;28;87964;-67
2023/03/13 08:59:01;;;;;;;3.27;2.10;;;9.30;99.90;9.20;99182.00;;;;4976878;28;87653;-64
2023/03/13 09:01:30;;;;;;;1.37;1.27;;;9.30;99.90;9.30;99193.00;;;;4979270;28;89168;-67
2023/03/13 09:03:56;;;;;;;5.77;1.70;;;9.30;99.90;9.30;99184.00;;;;4987926;28;89285;-66
2023/03/13 09:06:22;;;;;;;2.60;1.20;;;9.30;99.90;9.30;99172.00;;;;4982036;28;106216;-66
2023/03/13 09:08:48;;;;;;;3.27;1.93;;;9.40;99.90;9.30;99162.00;;;;4975128;27;109189;-65
2023/03/13 09:11:17;;;;;;;3.60;1.20;;;9.40;99.90;9.40;99165.00;;;;4975324;28;116753;-64
2023/03/13 09:13:46;;;;;;;7.57;1.37;;;9.40;99.90;9.40;99171.00;;;;4974750;28;100648;-65
2023/03/13 09:16:18;;;;;;;1.60;1.37;;;9.40;99.90;9.50;99170.00;;;;4977170;28;102087;-63
2023/03/13 09:18:44;;;;;;;2.30;1.20;;;9.50;99.90;9.50;99173.00;;;;4979879;28;98982;-64
2023/03/13 09:21:18;;;;;;;2.33;1.07;;;9.60;99.90;9.60;99160.00;;;;4977572;28;88154;-65
2023/03/13 09:23:43;;;;;;;1.87;1.40;;;9.60;99.90;9.60;99164.00;;;;4978203;27;88010;-64
2023/03/13 09:26:09;;;;;;;1.63;1.20;;;9.70;99.90;9.70;99155.00;;;;4974709;28;111783;-64
2023/03/13 09:28:35;;;;;;;3.30;1.17;;;9.70;99.90;9.70;99150.00;;;;4979807;28;109050;-65
2023/03/13 09:31:13;;;;;;;2.10;1.40;;;9.80;99.90;9.80;99165.00;;;;4974226;28;117798;-64
2023/03/13 09:33:39;;;;;;;2.30;1.63;;;9.90;99.90;9.90;99150.00;;;;4974336;28;88365;-65
2023/03/13 09:36:06;;;;;;;1.20;1.10;;;9.90;99.90;9.90;99169.00;;;;4969820;28;103276;-64
2023/03/13 09:38:32;;;;;;;4.37;0.83;;;10.00;99.90;10.00;99167.00;;;;4974882;28;87936;-65
2023/03/13 09:41:15;;;;;;;2.27;1.33;;;10.00;99.90;10.00;99162.00;;;;4971144;28;109916;-65
2023/03/13 09:43:49;;;;;;;3.40;1.27;;;10.10;99.90;10.00;99146.00;;;;4975189;28;87939;-65
2023/03/13 09:46:30;;;;;;;1.03;0.77;;;10.10;99.90;10.00;99150.00;;;;4970957;28;88058;-64
2023/03/13 09:49:14;;;;;;;2.87;0.90;;;10.10;99.90;10.00;99165.00;;;;4969062;28;88065;-67
2023/03/13 09:51:45;;;;;;;3.50;1.03;;;10.10;99.90;10.00;99163.00;;;;4974128;28;104516;-68
2023/03/13 09:54:45;;;;;;;1.17;0.90;;;10.10;99.90;10.00;99150.00;;;;4987426;27;88208;-67
2023/03/13 09:57:23;;;;;;;5.80;1.40;;;10.10;99.90;10.00;99141.00;;;;4970414;28;87916;-67
2023/03/13 10:00:00;;;;;;;2.07;1.40;;;10.10;99.90;10.00;99148.00;;;;4984974;27;88049;-67
2023/03/13 10:02:35;;;;;;;1.83;1.20;;;10.10;99.90;10.00;99141.00;;;;4972031;28;113217;-65
2023/03/13 10:05:18;;;;;;;1.03;0.90;;;10.10;99.90;10.00;99138.00;;;;4972119;28;111318;-66
2023/03/13 10:07:44;;;;;;;1.70;1.10;;;10.10;99.90;10.10;99144.00;;;;4991289;27;97185;-65
2023/03/13 10:10:16;;;;;;;9.73;1.63;;;10.10;99.90;10.10;99147.00;;;;4973335;28;107991;-66
2023/03/13 10:12:48;;;;;;;2.70;1.33;;;10.10;99.90;10.20;99141.00;;;;4976478;28;88987;-66
2023/03/13 10:15:33;;;;;;;0.90;0.83;;;10.20;99.90;10.20;99138.00;;;;4975982;28;88755;-66
2023/03/13 10:18:16;;;;;;;0.63;0.63;;;10.30;99.90;10.30;99132.00;;;;4973917;28;94489;-64
2023/03/13 10:20:45;;;;;;;1.37;0.73;;;10.30;99.90;10.40;99144.00;;;;4975685;28;87275;-65
2023/03/13 10:23:33;;;;;;;1.97;0.93;;;10.40;99.90;10.50;99133.00;;;;4987073;27;88987;-67
2023/03/13 10:25:59;;;;;;;2.33;0.83;;;10.50;99.90;10.50;99125.00;;;;4969444;28;109992;-65
2023/03/13 10:28:24;;;;;;;2.30;0.80;;;10.10;99.90;10.60;99136.00;;;;4975321;28;109933;-66
2023/03/13 10:31:01;;;;;;;1.03;0.93;;;10.60;99.90;10.60;99141.00;;;;4972652;28;108753;-66
2023/03/13 10:33:28;;;;;;;0.67;0.60;;;10.70;99.90;10.70;99130.00;;;;4991392;27;88212;-64
2023/03/13 10:36:06;;;;;;;2.50;0.80;;;10.70;99.90;10.80;99133.00;;;;4975793;27;88052;-63
2023/03/13 10:38:53;;;;;;;1.17;0.67;;;10.80;99.90;10.90;99138.00;;;;4973567;28;88156;-66
2023/03/13 10:41:29;;;;;;;2.30;0.77;;;10.90;99.90;11.00;99143.00;;;;4988675;27;87897;-65
2023/03/13 10:44:04;;;;;;;3.13;1.03;;;11.00;99.90;11.10;99138.00;;;;4970145;28;88717;-65
2023/03/13 10:46:34;;;;;;;2.83;0.80;;;11.20;99.90;11.20;99130.00;;;;4979458;28;96577;-65
2023/03/13 10:49:03;;;;;;;3.70;1.20;;;11.20;99.90;11.30;99122.00;;;;4972968;28;87929;-64
2023/03/13 10:51:47;;;;;;;0.67;0.43;;;11.30;99.90;11.50;99128.00;;;;4975398;28;87990;-66
2023/03/13 10:54:23;;;;;;;4.07;0.80;;;11.50;99.90;11.70;99130.00;;;;4976776;28;90044;-65
2023/03/13 10:56:51;;;;;;;0.93;0.60;;;12.50;99.90;11.90;99133.00;;;;4972342;28;89334;-63
2023/03/13 10:59:23;;;;;;;0.93;0.87;;;11.80;99.90;12.00;99134.00;;;;4974261;28;87954;-63
2023/03/13 11:01:50;;;;;;;1.30;0.60;;;12.00;99.90;12.20;99125.00;;;;4968821;28;91102;-64
2023/03/13 11:04:20;;;;;;;2.43;0.73;;;12.20;99.90;12.30;99123.00;;;;4971537;28;88165;-64
2023/03/13 11:07:04;;;;;;;0.50;0.30;;;12.30;99.90;12.40;99119.00;;;;4988455;27;111356;-64
2023/03/13 11:09:31;;;;;;;0.60;0.40;;;12.40;99.90;12.50;99114.00;;;;4968702;28;87822;-64